| time (UTC) | temp F | wind direction | speed MPH | gust MPH | rain 1hr in | rain 24hr in | rain mn in | humidity % | barometer mb |
| 20260507191507 | 60 | 337 | 5.0 | 15.0 | 0.00 | 0.00 | 0.00 | 32 | 1015.5 |
| 20260507190008 | 60 | 337 | 5.0 | 15.0 | 0.00 | 0.00 | 0.00 | 32 | 1015.5 |
| 20260507184508 | 60 | 337 | 5.0 | 15.0 | 0.00 | 0.00 | 0.00 | 32 | 1015.5 |
| 20260507183008 | 60 | 337 | 5.0 | 15.0 | 0.00 | 0.00 | 0.00 | 32 | 1015.5 |
| 20260507181507 | 60 | 337 | 5.0 | 15.0 | 0.00 | 0.00 | 0.00 | 32 | 1015.5 |
| 20260507180008 | 60 | 337 | 5.0 | 15.0 | 0.00 | 0.00 | 0.00 | 32 | 1015.5 |
| 20260507174507 | 60 | 337 | 5.0 | 15.0 | 0.00 | 0.00 | 0.00 | 32 | 1015.5 |
| 20260507173007 | 60 | 337 | 5.0 | 15.0 | 0.00 | 0.00 | 0.00 | 32 | 1015.5 |
| 20260507171507 | 60 | 337 | 5.0 | 15.0 | 0.00 | 0.00 | 0.00 | 32 | 1015.5 |
| 20260507170007 | 60 | 337 | 5.0 | 15.0 | 0.00 | 0.00 | 0.00 | 32 | 1015.5 |
| 20260507163007 | 60 | 337 | 5.0 | 15.0 | 0.00 | 0.00 | 0.00 | 32 | 1015.5 |
| 20260507161507 | 60 | 337 | 5.0 | 15.0 | 0.00 | 0.00 | 0.00 | 32 | 1015.5 |
| 20260507160007 | 60 | 337 | 5.0 | 15.0 | 0.00 | 0.00 | 0.00 | 32 | 1015.5 |
| 20260507154507 | 60 | 337 | 5.0 | 15.0 | 0.00 | 0.00 | 0.00 | 32 | 1015.5 |
| 20260507151507 | 60 | 337 | 5.0 | 15.0 | 0.00 | 0.00 | 0.00 | 32 | 1015.5 |
| 20260507150007 | 60 | 337 | 5.0 | 15.0 | 0.00 | 0.00 | 0.00 | 32 | 1015.5 |
| 20260507144506 | 60 | 337 | 5.0 | 15.0 | 0.00 | 0.00 | 0.00 | 32 | 1015.5 |
| 20260507143007 | 60 | 337 | 5.0 | 15.0 | 0.00 | 0.00 | 0.00 | 32 | 1015.5 |
| 20260507141507 | 60 | 337 | 5.0 | 15.0 | 0.00 | 0.00 | 0.00 | 32 | 1015.5 |
| 20260507140007 | 60 | 337 | 5.0 | 15.0 | 0.00 | 0.00 | 0.00 | 32 | 1015.5 |
| 20260507134507 | 60 | 337 | 5.0 | 15.0 | 0.00 | 0.00 | 0.00 | 32 | 1015.5 |
| 20260507133007 | 60 | 337 | 5.0 | 15.0 | 0.00 | 0.00 | 0.00 | 32 | 1015.5 |
| 20260507131506 | 60 | 337 | 5.0 | 15.0 | 0.00 | 0.00 | 0.00 | 32 | 1015.5 |
| 20260507130007 | 60 | 337 | 5.0 | 15.0 | 0.00 | 0.00 | 0.00 | 32 | 1015.5 |
| 20260507124507 | 60 | 337 | 5.0 | 15.0 | 0.00 | 0.00 | 0.00 | 32 | 1015.5 |
| 20260507123006 | 60 | 337 | 5.0 | 15.0 | 0.00 | 0.00 | 0.00 | 32 | 1015.5 |
| 20260507120006 | 60 | 337 | 5.0 | 15.0 | 0.00 | 0.00 | 0.00 | 32 | 1015.5 |
| 20260507113007 | 60 | 337 | 5.0 | 15.0 | 0.00 | 0.00 | 0.00 | 32 | 1015.5 |
| 20260507111507 | 60 | 337 | 5.0 | 15.0 | 0.00 | 0.00 | 0.00 | 32 | 1015.5 |
| 20260507110007 | 60 | 337 | 5.0 | 15.0 | 0.00 | 0.00 | 0.00 | 32 | 1015.5 |
| 20260507104506 | 60 | 333 | 5.0 | 10.0 | 0.00 | 0.00 | 0.00 | 32 | 1015.3 |
| 20260507101507 | 58 | 276 | 5.0 | 12.0 | 0.00 | 0.00 | 0.00 | 33 | 1015.2 |
| 20260507100007 | 58 | 249 | 4.0 | 9.0 | 0.00 | 0.00 | 0.00 | 34 | 1015.1 |
| 20260507093006 | 56 | 278 | 5.0 | 10.0 | 0.00 | 0.00 | 0.00 | 35 | 1015.0 |
| 20260507091506 | 56 | 234 | 6.0 | 12.0 | 0.00 | 0.00 | 0.00 | 35 | 1015.0 |
| 20260507090006 | 56 | 267 | 4.0 | 9.0 | 0.00 | 0.00 | 0.00 | 39 | 1015.0 |
| 20260507084506 | 55 | 259 | 5.0 | 9.0 | 0.00 | 0.00 | 0.00 | 39 | 1014.6 |
| 20260507083006 | 55 | 292 | 4.0 | 11.0 | 0.00 | 0.00 | 0.00 | 38 | 1014.6 |
| 20260507081506 | 54 | 276 | 3.0 | 8.0 | 0.00 | 0.00 | 0.00 | 41 | 1014.3 |
| 20260507080006 | 53 | 271 | 4.0 | 8.0 | 0.00 | 0.00 | 0.00 | 41 | 1014.3 |
| 20260507073005 | 52 | 341 | 3.0 | 10.0 | 0.00 | 0.00 | 0.00 | 47 | 1014.2 |
| 20260507070010 | 52 | 290 | 4.0 | 9.0 | 0.00 | 0.00 | 0.00 | 50 | 1014.1 |
| 20260507064505 | 52 | 294 | 4.0 | 9.0 | 0.00 | 0.00 | 0.00 | 51 | 1014.2 |
| 20260507063006 | 52 | 280 | 4.0 | 7.0 | 0.00 | 0.00 | 0.00 | 53 | 1014.1 |
| 20260507061508 | 51 | 266 | 4.0 | 9.0 | 0.00 | 0.00 | 0.00 | 55 | 1013.8 |
| 20260507054505 | 51 | 270 | 5.0 | 9.0 | 0.00 | 0.00 | 0.00 | 56 | 1013.5 |
| 20260507051506 | 50 | 247 | 6.0 | 10.0 | 0.00 | 0.00 | 0.00 | 61 | 1013.2 |
| 20260507050006 | 50 | 284 | 5.0 | 9.0 | 0.00 | 0.00 | 0.00 | 62 | 1013.1 |
| 20260507044506 | 50 | 288 | 3.0 | 7.0 | 0.00 | 0.00 | 0.00 | 64 | 1012.9 |
| 20260507043005 | 49 | 282 | 3.0 | 9.0 | 0.00 | 0.00 | 0.00 | 64 | 1012.7 |
| 20260507041505 | 49 | 328 | 5.0 | 9.0 | 0.00 | 0.00 | 0.00 | 64 | 1012.7 |
| 20260507040005 | 49 | 314 | 5.0 | 10.0 | 0.00 | 0.00 | 0.00 | 63 | 1012.4 |
| 20260507034505 | 49 | 281 | 3.0 | 5.0 | 0.00 | 0.00 | 0.00 | 63 | 1012.2 |
| 20260507024505 | 49 | 358 | 1.0 | 3.0 | 0.00 | 0.00 | 0.00 | 61 | 1011.7 |
| 20260507023005 | 49 | 349 | 1.0 | 4.0 | 0.00 | 0.00 | 0.00 | 60 | 1011.8 |
| 20260507021505 | 49 | 45 | 1.0 | 2.0 | 0.00 | 0.00 | 0.00 | 58 | 1011.6 |
| 20260507020004 | 49 | 45 | 1.0 | 4.0 | 0.00 | 0.00 | 0.00 | 59 | 1011.6 |
| 20260507014505 | 49 | 19 | 1.0 | 4.0 | 0.00 | 0.00 | 0.00 | 59 | 1011.2 |
| 20260507013007 | 49 | 5 | 2.0 | 3.0 | 0.00 | 0.00 | 0.00 | 59 | 1011.4 |
| 20260507011504 | 49 | 355 | 1.0 | 4.0 | 0.00 | 0.00 | 0.00 | 57 | 1011.4 |
| 20260507010005 | 50 | 338 | 2.0 | 4.0 | 0.00 | 0.00 | 0.00 | 57 | 1011.0 |
| 20260507004504 | 50 | 284 | 2.0 | 4.0 | 0.00 | 0.00 | 0.00 | 57 | 1011.1 |
| 20260507003005 | 50 | 327 | 2.0 | 4.0 | 0.00 | 0.00 | 0.00 | 59 | 1011.0 |
| 20260507001504 | 50 | 90 | 3.0 | 7.0 | 0.00 | 0.00 | 0.00 | 58 | 1010.8 |
| 20260507000004 | 50 | 90 | 4.0 | 9.0 | 0.00 | 0.00 | 0.00 | 59 | 1010.6 |
| 20260506234505 | 50 | 90 | 4.0 | 8.0 | 0.00 | 0.00 | 0.00 | 60 | 1010.3 |
| 20260506233005 | 51 | 66 | 5.0 | 12.0 | 0.00 | 0.00 | 0.00 | 59 | 1010.2 |
| 20260506231507 | 51 | 45 | 5.0 | 11.0 | 0.00 | 0.00 | 0.00 | 57 | 1010.1 |
| 20260506230008 | 51 | 45 | 6.0 | 12.0 | 0.00 | 0.00 | 0.00 | 54 | 1010.3 |
| 20260506224507 | 51 | 65 | 8.0 | 16.0 | 0.00 | 0.00 | 0.00 | 52 | 1009.8 |
| 20260506223008 | 53 | 9 | 4.0 | 8.0 | 0.00 | 0.00 | 0.00 | 47 | 1009.9 |
| 20260506221508 | 55 | 277 | 4.0 | 8.0 | 0.00 | 0.00 | 0.00 | 44 | 1009.5 |
| 20260506220010 | 55 | 253 | 3.0 | 6.0 | 0.00 | 0.00 | 0.00 | 43 | 1009.5 |
| 20260506214507 | 56 | 185 | 4.0 | 8.0 | 0.00 | 0.00 | 0.00 | 42 | 1009.4 |
| 20260506213007 | 56 | 217 | 4.0 | 8.0 | 0.00 | 0.00 | 0.00 | 42 | 1009.2 |
| 20260506210008 | 55 | 181 | 4.0 | 7.0 | 0.00 | 0.00 | 0.00 | 43 | 1009.0 |
| 20260506204507 | 55 | 175 | 2.0 | 4.0 | 0.00 | 0.00 | 0.00 | 42 | 1009.1 |
| 20260506203008 | 56 | 153 | 1.0 | 4.0 | 0.00 | 0.00 | 0.00 | 41 | 1009.2 |
| 20260506201507 | 56 | 258 | 2.0 | 4.0 | 0.00 | 0.00 | 0.00 | 41 | 1009.3 |
| 20260506200008 | 57 | 148 | 2.0 | 5.0 | 0.00 | 0.00 | 0.00 | 39 | 1009.2 |
| 20260506194507 | 57 | 165 | 3.0 | 5.0 | 0.00 | 0.00 | 0.00 | 39 | 1009.0 |
| 20260506193008 | 58 | 225 | 2.0 | 4.0 | 0.00 | 0.00 | 0.00 | 38 | 1009.2 |